Time,TemperatureF,DewpointF,PressureIn,WindDirection,WindDirectionDegrees,WindSpeedMPH,WindSpeedGustMPH,Humidity,HourlyPrecipIn,Conditions,Clouds,dailyrainin,SoftwareType,DateUTC
2013-05-22 00:01:00,48.0,25.0,-100.00,NNE,15,4.0,5.0,39,-99.99,,,-99.99,,2013-05-22 06:01:00,
2013-05-22 00:11:00,48.0,25.0,-100.00,North,5,5.0,6.0,39,-99.99,,,-99.99,,2013-05-22 06:11:00,
2013-05-22 00:21:00,47.0,25.0,-100.00,NNE,15,4.0,6.0,41,-99.99,,,-99.99,,2013-05-22 06:21:00,
2013-05-22 00:31:00,47.0,26.0,-100.00,NNE,30,7.0,9.0,43,-99.99,,,-99.99,,2013-05-22 06:31:00,
2013-05-22 00:41:00,46.0,28.0,-100.00,NNE,15,9.0,10.0,48,-99.99,,,-99.99,,2013-05-22 06:41:00,
2013-05-22 00:52:00,45.0,29.0,-100.00,NNE,20,6.0,9.0,53,-99.99,,,-99.99,,2013-05-22 06:52:00,
2013-05-22 01:01:00,45.0,30.0,-100.00,NNE,20,5.0,7.0,56,-99.99,,,-99.99,,2013-05-22 07:01:00,
2013-05-22 01:11:00,45.0,30.0,-100.00,NNE,25,4.0,7.0,57,-99.99,,,-99.99,,2013-05-22 07:11:00,
2013-05-22 01:21:00,45.0,31.0,-100.00,North,5,4.0,7.0,58,-99.99,,,-99.99,,2013-05-22 07:21:00,
2013-05-22 01:31:00,44.0,31.0,-100.00,NNE,30,3.0,4.0,59,-99.99,,,-99.99,,2013-05-22 07:31:00,
2013-05-22 01:41:00,44.0,31.0,-100.00,NNE,25,2.0,4.0,60,-99.99,,,-99.99,,2013-05-22 07:41:00,
2013-05-22 01:52:00,44.0,31.0,-100.00,NE,50,4.0,5.0,59,-99.99,,,-99.99,,2013-05-22 07:52:00,
2013-05-22 02:02:00,44.0,31.0,-100.00,NE,40,2.0,4.0,59,-99.99,,,-99.99,,2013-05-22 08:02:00,
2013-05-22 02:11:00,44.0,31.0,-100.00,NE,40,4.0,5.0,58,-99.99,,,-99.99,,2013-05-22 08:11:00,
2013-05-22 02:21:00,44.0,31.0,-100.00,NNE,30,4.0,4.0,59,-99.99,,,-99.99,,2013-05-22 08:21:00,
2013-05-22 02:31:00,43.0,31.0,-100.00,NNE,25,1.0,4.0,61,-99.99,,,-99.99,,2013-05-22 08:31:00,
2013-05-22 02:41:00,43.0,31.0,-100.00,WSW,255,0.0,2.0,62,-99.99,,,-99.99,,2013-05-22 08:41:00,
2013-05-22 02:51:00,42.0,31.0,-100.00,West,265,2.0,3.0,65,-99.99,,,-99.99,,2013-05-22 08:51:00,
2013-05-22 03:01:00,42.0,32.0,-100.00,North,5,1.0,2.0,67,-99.99,,,-99.99,,2013-05-22 09:01:00,
2013-05-22 03:11:00,42.0,32.0,-100.00,North,5,1.0,2.0,67,-99.99,,,-99.99,,2013-05-22 09:11:00,
2013-05-22 03:21:00,41.0,32.0,-100.00,NW,305,1.0,1.0,68,-99.99,,,-99.99,,2013-05-22 09:21:00,
2013-05-22 03:32:00,41.0,32.0,-100.00,West,265,2.0,4.0,71,-99.99,,,-99.99,,2013-05-22 09:32:00,
2013-05-22 03:42:00,39.0,32.0,-100.00,WNW,300,3.0,4.0,75,-99.99,,,-99.99,,2013-05-22 09:42:00,
2013-05-22 03:53:00,41.0,33.0,-100.00,North,0,4.0,6.0,73,-99.99,,,-99.99,,2013-05-22 09:53:00,
2013-05-22 04:02:00,41.0,33.0,-100.00,NNW,335,5.0,6.0,73,-99.99,,,-99.99,,2013-05-22 10:02:00,
2013-05-22 04:12:00,42.0,33.0,-100.00,North,355,2.0,7.0,71,-99.99,,,-99.99,,2013-05-22 10:12:00,
2013-05-22 04:22:00,41.0,33.0,-100.00,NW,315,6.0,6.0,72,-99.99,,,-99.99,,2013-05-22 10:22:00,
2013-05-22 04:32:00,41.0,33.0,-100.00,NW,315,6.0,9.0,72,-99.99,,,-99.99,,2013-05-22 10:32:00,
2013-05-22 04:42:00,41.0,33.0,-100.00,NNW,335,6.0,8.0,73,-99.99,,,-99.99,,2013-05-22 10:42:00,
2013-05-22 04:52:00,41.0,33.0,-100.00,NW,325,4.0,7.0,73,-99.99,,,-99.99,,2013-05-22 10:52:00,
2013-05-22 05:02:00,40.0,33.0,-100.00,NW,310,4.0,6.0,75,-99.99,,,-99.99,,2013-05-22 11:02:00,
2013-05-22 05:11:00,40.0,33.0,-100.00,NW,305,7.0,9.0,75,-99.99,,,-99.99,,2013-05-22 11:11:00,
2013-05-22 05:21:00,41.0,33.0,-100.00,NW,310,7.0,10.0,74,-99.99,,,-99.99,,2013-05-22 11:21:00,
2013-05-22 05:32:00,41.0,33.0,-100.00,WNW,285,7.0,9.0,73,-99.99,,,-99.99,,2013-05-22 11:32:00,
2013-05-22 05:41:00,40.0,33.0,-100.00,NNW,330,4.0,6.0,73,-99.99,,,-99.99,,2013-05-22 11:41:00,
2013-05-22 05:52:00,40.0,33.0,-100.00,North,0,2.0,5.0,74,-99.99,,,-99.99,,2013-05-22 11:52:00,
2013-05-22 06:02:00,40.0,32.0,-100.00,West,275,3.0,5.0,75,-99.99,,,-99.99,,2013-05-22 12:02:00,
2013-05-22 06:11:00,40.0,33.0,-100.00,West,270,4.0,6.0,75,-99.99,,,-99.99,,2013-05-22 12:11:00,
2013-05-22 06:22:00,41.0,33.0,-100.00,NW,305,2.0,4.0,74,-99.99,,,-99.99,,2013-05-22 12:22:00,
2013-05-22 06:32:00,40.0,33.0,-100.00,NNE,30,2.0,6.0,75,-99.99,,,-99.99,,2013-05-22 12:32:00,
2013-05-22 06:42:00,42.0,33.0,-100.00,North,5,2.0,3.0,70,-99.99,,,-99.99,,2013-05-22 12:42:00,
2013-05-22 06:52:00,43.0,33.0,-100.00,NNW,330,3.0,4.0,68,-99.99,,,-99.99,,2013-05-22 12:52:00,
2013-05-22 07:01:00,44.0,34.0,-100.00,North,350,2.0,4.0,65,-99.99,,,-99.99,,2013-05-22 13:01:00,
2013-05-22 07:11:00,46.0,33.0,-100.00,WNW,285,0.0,1.0,60,-99.99,,,-99.99,,2013-05-22 13:11:00,
2013-05-22 07:21:00,47.0,33.0,-100.00,NNE,30,1.0,1.0,56,-99.99,,,-99.99,,2013-05-22 13:21:00,
2013-05-22 07:31:00,46.0,33.0,-100.00,North,0,1.0,3.0,59,-99.99,,,-99.99,,2013-05-22 13:31:00,
2013-05-22 07:41:00,48.0,34.0,-100.00,SSE,155,1.0,2.0,57,-99.99,,,-99.99,,2013-05-22 13:41:00,
2013-05-22 07:52:00,48.0,33.0,-100.00,NE,35,2.0,3.0,56,-99.99,,,-99.99,,2013-05-22 13:52:00,
2013-05-22 08:02:00,47.0,33.0,-100.00,ENE,60,1.0,2.0,59,-99.99,,,-99.99,,2013-05-22 14:02:00,
2013-05-22 08:11:00,48.0,35.0,-100.00,SE,140,0.0,2.0,60,-99.99,,,-99.99,,2013-05-22 14:11:00,
2013-05-22 08:21:00,48.0,34.0,-100.00,South,170,1.0,4.0,58,-99.99,,,-99.99,,2013-05-22 14:21:00,
2013-05-22 08:32:00,48.0,35.0,-100.00,South,180,3.0,4.0,59,-99.99,,,-99.99,,2013-05-22 14:32:00,
2013-05-22 08:41:00,48.0,35.0,-100.00,South,185,3.0,4.0,61,-99.99,,,-99.99,,2013-05-22 14:41:00,
2013-05-22 08:52:00,47.0,36.0,-100.00,SSE,165,3.0,5.0,64,-99.99,,,-99.99,,2013-05-22 14:52:00,
2013-05-22 09:01:00,50.0,36.0,-100.00,South,170,3.0,6.0,57,-99.99,,,-99.99,,2013-05-22 15:01:00,
2013-05-22 09:11:00,51.0,35.0,-100.00,ESE,115,6.0,7.0,52,-99.99,,,-99.99,,2013-05-22 15:11:00,
2013-05-22 09:21:00,51.0,34.0,-100.00,SE,130,6.0,9.0,50,-99.99,,,-99.99,,2013-05-22 15:21:00,
2013-05-22 09:32:00,51.0,34.0,-100.00,ESE,110,7.0,10.0,51,-99.99,,,-99.99,,2013-05-22 15:32:00,
2013-05-22 09:42:00,52.0,35.0,-100.00,ESE,105,6.0,9.0,50,-99.99,,,-99.99,,2013-05-22 15:42:00,
2013-05-22 09:53:00,53.0,35.0,-100.00,ESE,105,6.0,11.0,50,-99.99,,,-99.99,,2013-05-22 15:53:00,
2013-05-22 10:02:00,54.0,34.0,-100.00,East,95,8.0,12.0,47,-99.99,,,-99.99,,2013-05-22 16:02:00,
2013-05-22 10:12:00,53.0,34.0,-100.00,ESE,115,7.0,12.0,47,-99.99,,,-99.99,,2013-05-22 16:12:00,
2013-05-22 10:22:00,54.0,35.0,-100.00,East,95,7.0,14.0,48,-99.99,,,-99.99,,2013-05-22 16:22:00,
2013-05-22 10:32:00,54.0,35.0,-100.00,ESE,110,11.0,15.0,48,-99.99,,,-99.99,,2013-05-22 16:32:00,
2013-05-22 10:42:00,54.0,35.0,-100.00,ESE,105,11.0,16.0,48,-99.99,,,-99.99,,2013-05-22 16:42:00,
2013-05-22 10:52:00,54.0,35.0,-100.00,ESE,110,9.0,14.0,48,-99.99,,,-99.99,,2013-05-22 16:52:00,
2013-05-22 11:02:00,55.0,36.0,-100.00,ESE,105,11.0,16.0,47,-99.99,,,-99.99,,2013-05-22 17:02:00,
2013-05-22 11:11:00,55.0,35.0,-100.00,SE,140,11.0,16.0,46,-99.99,,,-99.99,,2013-05-22 17:11:00,
2013-05-22 11:22:00,56.0,36.0,-100.00,East,100,9.0,17.0,47,-99.99,,,-99.99,,2013-05-22 17:22:00,
2013-05-22 11:32:00,56.0,35.0,-100.00,ESE,115,12.0,17.0,46,-99.99,,,-99.99,,2013-05-22 17:32:00,
2013-05-22 11:42:00,56.0,35.0,-100.00,SE,135,11.0,19.0,45,-99.99,,,-99.99,,2013-05-22 17:42:00,
2013-05-22 11:53:00,57.0,36.0,-100.00,ESE,120,12.0,17.0,44,-99.99,,,-99.99,,2013-05-22 17:53:00,
2013-05-22 12:02:00,58.0,36.0,-100.00,ESE,105,11.0,15.0,44,-99.99,,,-99.99,,2013-05-22 18:02:00,
2013-05-22 12:14:00,58.0,36.0,-100.00,ESE,110,14.0,18.0,43,-99.99,,,-99.99,,2013-05-22 18:14:00,
2013-05-22 12:22:00,59.0,37.0,-100.00,ESE,105,11.0,21.0,42,-99.99,,,-99.99,,2013-05-22 18:22:00,
2013-05-22 12:33:00,60.0,37.0,-100.00,ESE,110,9.0,17.0,42,-99.99,,,-99.99,,2013-05-22 18:33:00,
2013-05-22 12:41:00,60.0,37.0,-100.00,East,100,9.0,20.0,41,-99.99,,,-99.99,,2013-05-22 18:41:00,
2013-05-22 12:52:00,60.0,36.0,-100.00,ESE,110,12.0,18.0,40,-99.99,,,-99.99,,2013-05-22 18:52:00,
2013-05-22 13:02:00,59.0,35.0,-100.00,SE,135,15.0,19.0,40,-99.99,,,-99.99,,2013-05-22 19:02:00,
2013-05-22 13:11:00,59.0,35.0,-100.00,ESE,120,11.0,21.0,40,-99.99,,,-99.99,,2013-05-22 19:11:00,
2013-05-22 13:21:00,59.0,35.0,-100.00,ESE,115,14.0,17.0,40,-99.99,,,-99.99,,2013-05-22 19:21:00,
2013-05-22 13:31:00,59.0,34.0,-100.00,SE,130,16.0,22.0,38,-99.99,,,-99.99,,2013-05-22 19:31:00,
2013-05-22 13:41:00,59.0,34.0,-100.00,SE,140,15.0,21.0,39,-99.99,,,-99.99,,2013-05-22 19:41:00,
2013-05-22 13:52:00,59.0,34.0,-100.00,SE,140,13.0,19.0,38,-99.99,,,-99.99,,2013-05-22 19:52:00,
2013-05-22 14:01:00,60.0,34.0,-100.00,SSE,150,13.0,17.0,37,-99.99,,,-99.99,,2013-05-22 20:01:00,
2013-05-22 14:11:00,60.0,34.0,-100.00,SE,135,14.0,19.0,37,-99.99,,,-99.99,,2013-05-22 20:11:00,
2013-05-22 14:21:00,60.0,34.0,-100.00,SE,135,14.0,17.0,37,-99.99,,,-99.99,,2013-05-22 20:21:00,
2013-05-22 14:32:00,60.0,35.0,-100.00,East,100,10.0,17.0,39,-99.99,,,-99.99,,2013-05-22 20:32:00,
2013-05-22 14:41:00,60.0,35.0,-100.00,SE,130,13.0,18.0,38,-99.99,,,-99.99,,2013-05-22 20:41:00,
2013-05-22 14:51:00,60.0,35.0,-100.00,SE,135,12.0,17.0,38,-99.99,,,-99.99,,2013-05-22 20:51:00,
2013-05-22 15:01:00,60.0,35.0,-100.00,SE,130,13.0,18.0,38,-99.99,,,-99.99,,2013-05-22 21:01:00,
2013-05-22 15:11:00,62.0,36.0,-100.00,ESE,115,9.0,18.0,37,-99.99,,,-99.99,,2013-05-22 21:11:00,
2013-05-22 15:21:00,63.0,36.0,-100.00,ESE,110,11.0,17.0,36,-99.99,,,-99.99,,2013-05-22 21:21:00,
2013-05-22 15:32:00,62.0,35.0,-100.00,East,100,9.0,21.0,36,-99.99,,,-99.99,,2013-05-22 21:32:00,
2013-05-22 15:42:00,62.0,35.0,-100.00,SE,125,16.0,23.0,36,-99.99,,,-99.99,,2013-05-22 21:42:00,
2013-05-22 15:52:00,63.0,36.0,-100.00,ESE,120,16.0,19.0,36,-99.99,,,-99.99,,2013-05-22 21:52:00,
2013-05-22 16:02:00,63.0,35.0,-100.00,SE,130,16.0,21.0,35,-99.99,,,-99.99,,2013-05-22 22:02:00,
2013-05-22 16:12:00,63.0,36.0,-100.00,SE,130,16.0,21.0,35,-99.99,,,-99.99,,2013-05-22 22:12:00,
2013-05-22 16:22:00,63.0,35.0,-100.00,SE,125,10.0,20.0,35,-99.99,,,-99.99,,2013-05-22 22:22:00,
2013-05-22 16:33:00,64.0,36.0,-100.00,East,85,9.0,14.0,35,-99.99,,,-99.99,,2013-05-22 22:33:00,
2013-05-22 16:42:00,63.0,36.0,-100.00,East,90,9.0,13.0,35,-99.99,,,-99.99,,2013-05-22 22:42:00,
2013-05-22 16:52:00,63.0,36.0,-100.00,East,85,12.0,15.0,35,-99.99,,,-99.99,,2013-05-22 22:52:00,
2013-05-22 17:02:00,63.0,35.0,-100.00,East,80,12.0,17.0,35,-99.99,,,-99.99,,2013-05-22 23:02:00,
2013-05-22 17:12:00,64.0,36.0,-100.00,East,80,7.0,11.0,35,-99.99,,,-99.99,,2013-05-22 23:12:00,
2013-05-22 17:21:00,65.0,36.0,-100.00,East,85,9.0,11.0,34,-99.99,,,-99.99,,2013-05-22 23:21:00,
2013-05-22 17:32:00,67.0,36.0,-100.00,East,100,7.0,12.0,32,-99.99,,,-99.99,,2013-05-22 23:32:00,
2013-05-22 17:42:00,65.0,35.0,-100.00,NNE,30,8.0,14.0,33,-99.99,,,-99.99,,2013-05-22 23:42:00,
2013-05-22 17:52:00,63.0,34.0,-100.00,ENE,60,7.0,12.0,33,-99.99,,,-99.99,,2013-05-22 23:52:00,
2013-05-22 18:01:00,63.0,34.0,-100.00,NE,40,9.0,16.0,33,-99.99,,,-99.99,,2013-05-23 00:01:00,
2013-05-22 18:11:00,57.0,34.0,-100.00,North,0,23.0,25.0,41,-99.99,,,-99.99,,2013-05-23 00:11:00,
2013-05-22 18:21:00,57.0,35.0,-100.00,North,355,18.0,22.0,43,-99.99,,,-99.99,,2013-05-23 00:21:00,
2013-05-22 18:31:00,56.0,35.0,-100.00,NNW,340,19.0,26.0,45,-99.99,,,-99.99,,2013-05-23 00:31:00,
2013-05-22 18:41:00,55.0,35.0,-100.00,NW,325,17.0,26.0,46,-99.99,,,-99.99,,2013-05-23 00:41:00,
2013-05-22 18:51:00,55.0,35.0,-100.00,NNW,335,18.0,21.0,46,-99.99,,,-99.99,,2013-05-23 00:51:00,
2013-05-22 19:01:00,54.0,36.0,-100.00,NNW,340,20.0,25.0,49,-99.99,,,-99.99,,2013-05-23 01:01:00,
2013-05-22 19:11:00,53.0,38.0,-100.00,WSW,240,17.0,22.0,57,-99.99,,,-99.99,,2013-05-23 01:11:00,
2013-05-22 19:21:00,48.0,48.0,-100.00,WSW,255,19.0,32.0,97,-99.99,,,-99.99,,2013-05-23 01:21:00,
2013-05-22 19:32:00,50.0,47.0,-100.00,North,0,11.0,17.0,91,-99.99,,,-99.99,,2013-05-23 01:32:00,
2013-05-22 19:41:00,49.0,48.0,-100.00,NE,55,4.0,7.0,95,-99.99,,,-99.99,,2013-05-23 01:41:00,
2013-05-22 19:52:00,49.0,47.0,-100.00,NNE,30,11.0,12.0,93,-99.99,,,-99.99,,2013-05-23 01:52:00,
2013-05-22 20:01:00,49.0,47.0,-100.00,NNE,30,7.0,12.0,91,-99.99,,,-99.99,,2013-05-23 02:01:00,
2013-05-22 20:11:00,49.0,46.0,-100.00,NNE,30,7.0,8.0,89,-99.99,,,-99.99,,2013-05-23 02:11:00,
2013-05-22 20:21:00,49.0,46.0,-100.00,NNE,25,3.0,7.0,89,-99.99,,,-99.99,,2013-05-23 02:21:00,
2013-05-22 20:31:00,49.0,47.0,-100.00,North,355,2.0,7.0,89,-99.99,,,-99.99,,2013-05-23 02:31:00,
2013-05-22 20:42:00,49.0,47.0,-100.00,North,355,2.0,7.0,89,-99.99,,,-99.99,,2013-05-23 02:42:00,
2013-05-22 20:51:00,49.0,47.0,-100.00,North,355,2.0,7.0,89,-99.99,,,-99.99,,2013-05-23 02:51:00,
2013-05-22 21:01:00,50.0,46.0,-100.00,NNW,340,8.0,9.0,87,-99.99,,,-99.99,,2013-05-23 03:01:00,
2013-05-22 21:11:00,50.0,48.0,-100.00,North,350,7.0,9.0,95,-99.99,,,-99.99,,2013-05-23 03:11:00,
2013-05-22 21:21:00,50.0,49.0,-100.00,NW,325,9.0,12.0,97,-99.99,,,-99.99,,2013-05-23 03:21:00,
2013-05-22 21:33:00,50.0,49.0,-100.00,WNW,285,9.0,12.0,97,-99.99,,,-99.99,,2013-05-23 03:33:00,
2013-05-22 21:43:00,50.0,49.0,-100.00,WNW,295,10.0,12.0,95,-99.99,,,-99.99,,2013-05-23 03:43:00,
2013-05-22 21:53:00,50.0,49.0,-100.00,NW,325,7.0,10.0,97,-99.99,,,-99.99,,2013-05-23 03:53:00,
2013-05-22 22:02:00,49.0,49.0,-100.00,NNW,345,6.0,10.0,99,-99.99,,,-99.99,,2013-05-23 04:02:00,
2013-05-22 22:11:00,49.0,49.0,-100.00,North,355,7.0,9.0,99,-99.99,,,-99.99,,2013-05-23 04:11:00,
2013-05-22 22:22:00,49.0,49.0,-100.00,North,355,4.0,7.0,99,-99.99,,,-99.99,,2013-05-23 04:22:00,
2013-05-22 22:33:00,49.0,49.0,-100.00,NNW,340,6.0,7.0,99,-99.99,,,-99.99,,2013-05-23 04:33:00,
2013-05-22 22:42:00,49.0,49.0,-100.00,WNW,295,6.0,9.0,99,-99.99,,,-99.99,,2013-05-23 04:42:00,
2013-05-22 22:52:00,49.0,49.0,-100.00,NW,315,6.0,10.0,99,-99.99,,,-99.99,,2013-05-23 04:52:00,
2013-05-22 23:02:00,49.0,49.0,-100.00,North,0,2.0,8.0,99,-99.99,,,-99.99,,2013-05-23 05:02:00,
2013-05-22 23:11:00,49.0,49.0,-100.00,WNW,290,6.0,9.0,99,-99.99,,,-99.99,,2013-05-23 05:11:00,
2013-05-22 23:21:00,49.0,49.0,-100.00,West,260,6.0,9.0,99,-99.99,,,-99.99,,2013-05-23 05:21:00,
2013-05-22 23:32:00,49.0,49.0,-100.00,SW,215,11.0,15.0,99,-99.99,,,-99.99,,2013-05-23 05:32:00,
2013-05-22 23:42:00,49.0,49.0,-100.00,SW,220,6.0,11.0,99,-99.99,,,-99.99,,2013-05-23 05:42:00,
2013-05-22 23:52:00,49.0,49.0,-100.00,South,185,2.0,4.0,99,-99.99,,,-99.99,,2013-05-23 05:52:00,